Time;durP1;ratioP1;P1;durP2;ratioP2;P2;SDS_P1;SDS_P2;PMS_P1;PMS_P2;Temp;Humidity;BMP_temperature;BMP_pressure;BME280_temperature;BME280_humidity;BME280_pressure;Samples;Min_cycle;Max_cycle;Signal;HPM_P1;HPM_P2
2021/08/05 00:02:22;;;;;;;5.00;3.85;;;16.60;99.90;;;;;;5114798;28;20108;-84
2021/08/05 00:04:57;;;;;;;5.80;4.05;;;16.60;99.90;;;;;;5096500;28;20046;-84
2021/08/05 00:07:26;;;;;;;8.67;3.90;;;16.60;99.90;;;;;;5096593;28;20051;-84
2021/08/05 00:10:08;;;;;;;;;;;;;;;;;;;;;
2021/08/05 00:12:41;;;;;;;7.25;4.18;;;16.70;99.90;;;;;;5089509;28;20111;-84
2021/08/05 00:15:08;;;;;;;6.10;3.92;;;16.60;99.90;;;;;;5091693;28;20044;-84
2021/08/05 00:17:37;;;;;;;7.25;4.05;;;16.60;99.90;;;;;;5088248;28;20032;-84
2021/08/05 00:20:15;;;;;;;6.13;3.42;;;16.60;99.90;;;;;;5108346;28;20028;-84
2021/08/05 00:22:45;;;;;;;5.30;3.42;;;16.40;99.90;;;;;;5084270;28;20051;-85
2021/08/05 00:25:11;;;;;;;7.38;3.70;;;16.70;99.90;;;;;;5114316;28;20031;-84
2021/08/05 00:27:42;;;;;;;6.78;3.40;;;16.70;99.90;;;;;;5097003;28;20540;-84
2021/08/05 00:30:09;;;;;;;4.97;3.20;;;16.50;99.90;;;;;;5096418;28;20078;-84
2021/08/05 00:32:35;;;;;;;6.47;3.50;;;16.60;99.90;;;;;;5095736;28;20036;-84
2021/08/05 00:35:04;;;;;;;7.10;3.60;;;16.70;99.90;;;;;;5096120;28;20035;-84
2021/08/05 00:37:30;;;;;;;7.15;4.00;;;16.60;99.90;;;;;;5079074;28;20035;-84
2021/08/05 00:39:57;;;;;;;4.93;3.70;;;16.60;99.90;;;;;;5079609;28;20039;-84
2021/08/05 00:42:23;;;;;;;4.60;3.65;;;16.60;99.90;;;;;;5079075;28;20051;-84
2021/08/05 00:44:52;;;;;;;5.07;3.45;;;16.60;99.90;;;;;;5096228;28;20039;-84
2021/08/05 00:47:18;;;;;;;6.30;3.10;;;16.60;99.90;;;;;;5062428;28;20445;-84
2021/08/05 00:49:44;;;;;;;8.82;3.63;;;16.50;99.90;;;;;;5095864;28;20044;-84
2021/08/05 00:52:10;;;;;;;6.50;3.60;;;16.50;99.90;;;;;;5078940;28;20104;-84
2021/08/05 00:54:38;;;;;;;5.63;3.85;;;16.50;99.90;;;;;;5095702;28;20031;-84
2021/08/05 00:57:08;;;;;;;7.07;3.92;;;16.50;99.90;;;;;;5095719;28;20035;-84
2021/08/05 00:59:40;;;;;;;9.52;3.75;;;16.50;99.90;;;;;;5079402;28;20484;-84
2021/08/05 01:02:20;;;;;;;5.47;3.70;;;16.50;99.90;;;;;;5082699;28;20489;-84
2021/08/05 01:04:51;;;;;;;6.03;3.70;;;16.40;99.90;;;;;;5095098;28;20051;-83
2021/08/05 01:07:40;;;;;;;8.65;3.45;;;16.50;99.90;;;;;;5087200;28;20138;-84
2021/08/05 01:10:22;;;;;;;7.93;3.90;;;16.40;99.90;;;;;;5102225;28;20048;-84
2021/08/05 01:13:07;;;;;;;7.28;4.18;;;16.40;99.90;;;;;;5074006;28;20050;-84
2021/08/05 01:15:37;;;;;;;6.55;4.20;;;16.40;99.90;;;;;;5113474;28;20038;-84
2021/08/05 01:18:13;;;;;;;5.63;3.92;;;16.40;99.90;;;;;;5088770;28;20039;-84
2021/08/05 01:20:50;;;;;;;7.15;4.95;;;16.40;99.90;;;;;;5108031;28;20043;-84
2021/08/05 01:23:39;;;;;;;7.72;4.80;;;16.30;99.90;;;;;;5062563;28;20040;-85
2021/08/05 01:26:33;;;;;;;7.70;5.05;;;16.30;99.90;;;;;;5094753;28;20052;-83
2021/08/05 01:29:04;;;;;;;6.35;4.07;;;16.30;99.90;;;;;;5078581;28;20051;-84
2021/08/05 01:31:38;;;;;;;5.97;4.72;;;16.30;99.90;;;;;;5078723;28;20044;-84
2021/08/05 01:34:11;;;;;;;5.88;4.40;;;16.30;99.90;;;;;;5095522;28;20036;-87
2021/08/05 01:36:48;;;;;;;;;;;;;;;;;;;;;
2021/08/05 01:39:17;;;;;;;8.68;5.60;;;16.20;99.90;;;;;;5105742;28;20372;-87
2021/08/05 01:41:55;;;;;;;10.65;5.50;;;16.20;99.90;;;;;;5094465;28;20059;-87
2021/08/05 01:44:27;;;;;;;13.23;5.85;;;16.20;99.90;;;;;;5082703;28;20048;-88
2021/08/05 01:46:57;;;;;;;8.48;5.25;;;16.20;99.90;;;;;;5074151;28;20083;-87
2021/08/05 01:49:34;;;;;;;10.48;5.18;;;16.20;99.90;;;;;;5075756;28;20074;-88
2021/08/05 01:52:05;;;;;;;7.82;4.95;;;16.20;99.90;;;;;;5074341;28;20491;-87
2021/08/05 01:54:41;;;;;;;8.50;5.25;;;16.10;99.90;;;;;;5075114;28;20381;-87
2021/08/05 01:57:14;;;;;;;7.57;5.10;;;16.10;99.90;;;;;;5091860;28;20024;-87
2021/08/05 01:59:42;;;;;;;7.32;4.95;;;16.10;99.90;;;;;;5105508;28;20114;-87
2021/08/05 02:02:17;;;;;;;8.20;5.13;;;16.10;99.90;;;;;;5095825;28;20084;-87
2021/08/05 02:05:06;;;;;;;8.70;5.13;;;16.10;99.90;;;;;;5078190;28;20043;-87
2021/08/05 02:07:52;;;;;;;7.18;4.18;;;16.10;99.90;;;;;;5099787;28;20093;-87
2021/08/05 02:10:34;;;;;;;5.85;4.70;;;16.10;99.90;;;;;;5078163;28;20040;-87
2021/08/05 02:13:25;;;;;;;6.97;4.88;;;16.10;99.90;;;;;;5094928;28;20479;-87
2021/08/05 02:16:02;;;;;;;7.55;5.25;;;16.00;99.90;;;;;;5073521;28;20047;-87
2021/08/05 02:18:43;;;;;;;6.28;4.65;;;15.90;99.90;;;;;;5091356;28;20032;-87
2021/08/05 02:21:23;;;;;;;8.85;5.47;;;15.90;99.90;;;;;;5091670;28;20067;-87
2021/08/05 02:23:54;;;;;;;8.10;5.22;;;15.90;99.90;;;;;;5095086;28;20039;-87
2021/08/05 02:26:20;;;;;;;10.27;5.07;;;15.90;99.90;;;;;;5088314;28;20032;-87
2021/08/05 02:28:47;;;;;;;11.90;6.03;;;15.90;99.90;;;;;;5086503;28;20430;-87
2021/08/05 02:31:17;;;;;;;11.18;5.50;;;15.90;99.90;;;;;;5094889;28;20492;-87
2021/08/05 02:33:52;;;;;;;12.32;6.25;;;15.90;99.90;;;;;;5104911;28;20066;-87
2021/08/05 02:36:21;;;;;;;9.13;5.97;;;15.90;99.90;;;;;;5095230;28;20414;-87
2021/08/05 02:38:47;;;;;;;9.35;6.00;;;16.00;99.90;;;;;;5078980;28;20055;-88
2021/08/05 02:41:16;;;;;;;7.70;5.47;;;15.80;99.90;;;;;;5098555;28;20031;-87
2021/08/05 02:43:53;;;;;;;7.53;5.45;;;16.00;99.90;;;;;;5082031;28;20047;-87
2021/08/05 02:46:19;;;;;;;9.88;5.43;;;15.90;99.90;;;;;;5098588;28;20438;-88
2021/08/05 02:48:48;;;;;;;9.45;5.80;;;15.90;99.90;;;;;;5081643;28;20117;-88
2021/08/05 02:51:15;;;;;;;10.02;6.00;;;15.90;99.90;;;;;;5116590;28;20036;-88
2021/08/05 02:53:42;;;;;;;7.40;5.78;;;15.90;99.90;;;;;;5098265;28;20043;-88
2021/08/05 02:56:11;;;;;;;10.05;5.88;;;15.80;99.90;;;;;;5081720;28;20052;-87
2021/08/05 02:58:37;;;;;;;7.70;5.32;;;15.80;99.90;;;;;;5098258;28;20032;-88
2021/08/05 03:01:06;;;;;;;8.30;4.85;;;15.80;99.90;;;;;;5116542;28;20043;-87
2021/08/05 03:03:35;;;;;;;12.10;4.90;;;15.80;99.90;;;;;;5081414;28;20069;-88
2021/08/05 03:06:06;;;;;;;7.88;5.45;;;15.70;99.90;;;;;;5086618;28;20036;-88
2021/08/05 03:08:43;;;;;;;7.00;5.28;;;15.90;99.90;;;;;;5095990;28;20036;-87
2021/08/05 03:11:09;;;;;;;10.65;5.80;;;15.70;99.90;;;;;;5077763;28;20467;-88
2021/08/05 03:13:40;;;;;;;6.95;5.80;;;15.80;99.90;;;;;;5114482;28;20067;-88
2021/08/05 03:16:16;;;;;;;9.88;6.75;;;15.60;99.90;;;;;;5097837;28;20035;-88
2021/08/05 03:18:43;;;;;;;9.10;7.00;;;15.70;99.90;;;;;;5078536;28;20032;-88
2021/08/05 03:21:10;;;;;;;7.82;6.07;;;15.70;99.90;;;;;;5081189;28;20047;-88
2021/08/05 03:23:39;;;;;;;9.32;6.95;;;15.70;99.90;;;;;;5081381;28;20047;-88
2021/08/05 03:26:10;;;;;;;15.02;7.80;;;15.70;99.90;;;;;;5081294;28;20097;-88
2021/08/05 03:28:42;;;;;;;12.20;7.30;;;15.70;99.90;;;;;;5115977;28;20093;-87
2021/08/05 03:31:30;;;;;;;13.45;7.38;;;15.70;99.90;;;;;;5115435;28;20039;-88
2021/08/05 03:33:55;;;;;;;8.00;7.10;;;15.50;99.90;;;;;;5115109;28;20047;-88
2021/08/05 03:36:24;;;;;;;11.77;8.13;;;15.70;99.90;;;;;;5097375;28;20031;-87
2021/08/05 03:38:56;;;;;;;12.88;8.15;;;15.70;99.90;;;;;;5081164;28;20402;-87
2021/08/05 03:41:22;;;;;;;10.55;8.35;;;15.70;99.90;;;;;;5080669;28;20047;-87
2021/08/05 03:43:53;;;;;;;12.38;8.23;;;15.70;99.90;;;;;;5080447;28;20074;-87
2021/08/05 03:46:19;;;;;;;9.63;8.30;;;15.60;99.90;;;;;;5080524;28;20051;-84
2021/08/05 03:48:45;;;;;;;11.25;8.77;;;15.70;99.90;;;;;;5087760;28;20047;-84
2021/08/05 03:51:11;;;;;;;15.55;9.68;;;15.60;99.90;;;;;;5072922;28;20131;-84
2021/08/05 03:53:37;;;;;;;15.35;10.55;;;15.70;99.90;;;;;;5080104;28;20122;-84
2021/08/05 03:56:13;;;;;;;17.92;9.73;;;15.60;99.90;;;;;;5098311;28;20399;-84
2021/08/05 03:58:42;;;;;;;12.27;9.05;;;15.60;99.90;;;;;;5114802;28;20040;-84
2021/08/05 04:01:10;;;;;;;11.82;9.40;;;15.20;99.90;;;;;;5114832;28;20043;-84
2021/08/05 04:03:42;;;;;;;14.23;9.82;;;15.60;99.90;;;;;;5114837;28;20069;-84
2021/08/05 04:06:11;;;;;;;12.60;9.85;;;15.70;99.90;;;;;;5096450;28;20058;-84
2021/08/05 04:08:40;;;;;;;16.50;10.48;;;15.60;99.90;;;;;;5047822;28;20047;-84
2021/08/05 04:11:08;;;;;;;15.40;10.48;;;15.50;99.90;;;;;;5096294;28;20073;-84
2021/08/05 04:13:37;;;;;;;19.90;10.43;;;15.60;99.90;;;;;;5096234;28;20032;-84
2021/08/05 04:16:07;;;;;;;12.48;10.10;;;15.40;99.90;;;;;;5072669;28;20048;-84
2021/08/05 04:18:35;;;;;;;13.00;10.27;;;15.40;99.90;;;;;;5075094;28;20091;-85
2021/08/05 04:21:01;;;;;;;15.82;11.15;;;15.40;99.90;;;;;;5076155;28;20040;-83
2021/08/05 04:23:29;;;;;;;15.68;10.77;;;15.40;99.90;;;;;;5105348;28;20040;-84
2021/08/05 04:25:56;;;;;;;15.15;10.98;;;15.50;99.90;;;;;;5093096;28;20534;-84
2021/08/05 04:28:24;;;;;;;17.13;11.32;;;15.50;99.90;;;;;;5065396;28;20036;-84
2021/08/05 04:30:51;;;;;;;12.50;10.70;;;15.50;99.90;;;;;;5091464;28;20069;-83
2021/08/05 04:33:17;;;;;;;11.88;10.68;;;15.50;99.90;;;;;;5079360;28;20043;-85
2021/08/05 04:35:45;;;;;;;13.98;11.15;;;15.40;99.90;;;;;;5114114;28;20032;-85
2021/08/05 04:38:12;;;;;;;13.27;10.70;;;15.50;99.90;;;;;;5114149;28;20053;-84
2021/08/05 04:40:43;;;;;;;12.02;10.80;;;15.50;99.90;;;;;;5079165;28;20039;-84
2021/08/05 04:43:14;;;;;;;14.40;11.82;;;15.50;99.90;;;;;;5095628;28;20032;-84
2021/08/05 04:45:48;;;;;;;13.82;11.05;;;15.50;99.90;;;;;;5059759;28;20047;-85
2021/08/05 04:48:27;;;;;;;14.50;10.57;;;15.50;99.90;;;;;;5095020;28;20063;-85
2021/08/05 04:50:54;;;;;;;14.75;10.77;;;15.60;99.90;;;;;;5095863;28;20040;-88
2021/08/05 04:53:22;;;;;;;17.65;11.55;;;15.60;99.90;;;;;;5095913;28;20084;-88
2021/08/05 04:55:51;;;;;;;16.25;11.00;;;15.60;99.90;;;;;;5113897;28;20064;-84
2021/08/05 04:58:22;;;;;;;14.82;11.00;;;15.70;99.90;;;;;;5095658;28;20392;-84
2021/08/05 05:00:50;;;;;;;15.68;11.45;;;15.80;99.90;;;;;;5095897;28;20031;-85
2021/08/05 05:03:21;;;;;;;15.68;10.98;;;15.80;99.90;;;;;;5060565;28;20507;-85
2021/08/05 05:05:49;;;;;;;18.27;12.13;;;15.90;99.90;;;;;;5078968;28;20040;-85
2021/08/05 05:08:26;;;;;;;23.67;12.65;;;15.90;99.90;;;;;;5095425;28;20537;-85
2021/08/05 05:11:09;;;;;;;24.83;12.32;;;16.00;99.90;;;;;;5114132;28;20063;-85
2021/08/05 05:13:40;;;;;;;20.50;12.55;;;16.10;99.90;;;;;;5094871;28;20039;-85
2021/08/05 05:16:06;;;;;;;14.52;12.18;;;16.10;99.90;;;;;;5078927;28;20122;-85
2021/08/05 05:18:34;;;;;;;21.85;13.43;;;16.20;99.90;;;;;;5082866;28;20503;-84
2021/08/05 05:21:02;;;;;;;16.00;13.35;;;16.30;99.90;;;;;;5094425;28;20036;-84
2021/08/05 05:23:28;;;;;;;19.65;15.13;;;16.40;99.90;;;;;;5095348;28;20039;-84
2021/08/05 05:25:57;;;;;;;22.15;15.48;;;16.40;99.90;;;;;;5095040;28;20040;-85
2021/08/05 05:28:31;;;;;;;21.55;16.35;;;16.40;99.90;;;;;;5078503;28;20051;-84
2021/08/05 05:31:03;;;;;;;21.08;14.93;;;16.50;99.90;;;;;;5095185;28;20051;-84
2021/08/05 05:33:46;;;;;;;22.77;16.23;;;16.50;99.90;;;;;;5095170;28;20032;-84
2021/08/05 05:36:17;;;;;;;23.20;16.42;;;16.60;99.90;;;;;;5096710;28;20467;-85
2021/08/05 05:38:43;;;;;;;21.30;14.77;;;16.60;99.90;;;;;;5094883;28;20510;-85
2021/08/05 05:41:09;;;;;;;20.42;15.57;;;16.60;99.90;;;;;;5113152;28;20040;-85
2021/08/05 05:43:38;;;;;;;22.90;15.18;;;16.70;99.90;;;;;;5078164;28;20691;-84
2021/08/05 05:46:09;;;;;;;19.88;14.82;;;16.90;99.90;;;;;;5095365;28;20035;-85
2021/08/05 05:48:42;;;;;;;21.77;14.85;;;16.80;99.90;;;;;;5059079;28;20500;-85
2021/08/05 05:51:11;;;;;;;20.33;14.38;;;16.80;99.90;;;;;;5072956;28;20047;-85
2021/08/05 05:53:39;;;;;;;16.98;13.23;;;16.80;99.90;;;;;;5075264;28;20036;-85
2021/08/05 05:56:10;;;;;;;21.98;13.63;;;16.90;99.90;;;;;;5071919;28;20071;-85
2021/08/05 05:58:39;;;;;;;19.02;13.88;;;16.80;99.90;;;;;;5058868;28;20385;-85
2021/08/05 06:01:05;;;;;;;19.70;14.07;;;16.90;99.90;;;;;;5074623;28;20388;-85
2021/08/05 06:03:39;;;;;;;18.67;12.73;;;16.90;99.90;;;;;;5111663;28;20031;-84
2021/08/05 06:06:11;;;;;;;18.50;12.38;;;16.90;99.90;;;;;;5112987;28;20039;-84
2021/08/05 06:08:40;;;;;;;18.77;13.18;;;16.90;99.90;;;;;;5078004;28;20075;-84
2021/08/05 06:11:12;;;;;;;19.77;13.10;;;16.90;99.90;;;;;;5078180;28;20547;-84
2021/08/05 06:13:40;;;;;;;25.25;12.75;;;17.00;99.90;;;;;;5095015;28;20032;-84
2021/08/05 06:16:17;;;;;;;18.27;13.95;;;17.00;99.90;;;;;;5082519;28;20365;-85
2021/08/05 06:18:46;;;;;;;18.35;13.90;;;17.00;99.90;;;;;;5099204;28;20035;-85
2021/08/05 06:21:15;;;;;;;18.70;13.88;;;17.10;99.90;;;;;;5092420;28;20407;-84
2021/08/05 06:23:41;;;;;;;20.88;14.30;;;17.10;99.90;;;;;;5071059;28;20044;-84
2021/08/05 06:26:07;;;;;;;18.02;13.40;;;17.10;99.90;;;;;;5078529;28;20046;-85
2021/08/05 06:28:39;;;;;;;16.73;12.98;;;17.10;99.90;;;;;;5078953;28;20127;-84
2021/08/05 06:31:05;;;;;;;16.77;12.82;;;17.10;99.90;;;;;;5094909;28;20079;-84
2021/08/05 06:33:35;;;;;;;19.80;12.70;;;17.10;99.90;;;;;;5078557;28;20040;-85
2021/08/05 06:36:08;;;;;;;16.67;12.13;;;17.20;99.90;;;;;;5081956;28;20048;-84
2021/08/05 06:38:39;;;;;;;22.73;12.05;;;17.20;99.90;;;;;;5082184;28;20055;-84
2021/08/05 06:41:05;;;;;;;18.30;11.63;;;17.10;99.90;;;;;;5098284;28;20413;-84
2021/08/05 06:43:34;;;;;;;15.60;10.73;;;17.10;99.90;;;;;;5098423;28;20048;-84
2021/08/05 06:46:00;;;;;;;15.50;10.77;;;17.10;99.90;;;;;;5098160;28;20479;-84
2021/08/05 06:48:33;;;;;;;15.10;10.68;;;17.00;99.90;;;;;;5103031;28;20383;-84
2021/08/05 06:51:00;;;;;;;16.77;11.25;;;17.20;99.90;;;;;;5084448;28;20039;-84
2021/08/05 06:53:28;;;;;;;16.90;11.90;;;17.20;99.90;;;;;;5116209;28;20100;-84
2021/08/05 06:56:05;;;;;;;16.13;11.40;;;17.20;99.90;;;;;;5098596;28;20503;-84
2021/08/05 06:58:33;;;;;;;14.55;11.07;;;17.30;99.90;;;;;;5097761;28;20048;-84
2021/08/05 07:01:00;;;;;;;18.85;11.57;;;17.30;99.90;;;;;;5044989;28;20067;-85
2021/08/05 07:03:33;;;;;;;14.10;11.43;;;17.30;99.90;;;;;;5066348;28;20032;-85
2021/08/05 07:06:03;;;;;;;15.55;10.52;;;17.30;99.90;;;;;;5081319;28;20063;-85
2021/08/05 07:08:30;;;;;;;16.83;11.20;;;17.40;99.90;;;;;;5097866;28;20032;-84
2021/08/05 07:10:58;;;;;;;12.10;9.73;;;17.40;99.90;;;;;;5098147;28;20031;-84
2021/08/05 07:13:26;;;;;;;16.85;10.98;;;17.40;99.90;;;;;;5080923;28;20109;-84
2021/08/05 07:15:58;;;;;;;13.68;10.50;;;17.50;99.90;;;;;;5081824;28;20059;-84
2021/08/05 07:18:27;;;;;;;14.32;10.70;;;17.40;99.90;;;;;;5097972;28;20054;-84
2021/08/05 07:20:56;;;;;;;14.02;10.73;;;17.70;99.90;;;;;;5079959;28;20055;-84
2021/08/05 07:23:25;;;;;;;16.33;10.25;;;17.70;99.90;;;;;;5081524;28;20097;-84
2021/08/05 07:25:51;;;;;;;13.63;10.65;;;17.60;99.90;;;;;;5065921;28;20070;-84
2021/08/05 07:28:20;;;;;;;13.25;9.50;;;17.70;99.90;;;;;;5115806;28;20528;-84
2021/08/05 07:30:51;;;;;;;10.07;8.27;;;17.90;99.90;;;;;;5080507;28;20093;-84
2021/08/05 07:33:21;;;;;;;14.52;8.25;;;17.90;99.90;;;;;;5097385;28;20023;-85
2021/08/05 07:35:47;;;;;;;10.38;7.22;;;17.90;99.90;;;;;;5097457;28;20027;-85
2021/08/05 07:38:18;;;;;;;10.25;7.13;;;18.00;99.90;;;;;;5080842;28;20429;-85
2021/08/05 07:40:47;;;;;;;9.93;7.38;;;18.10;99.90;;;;;;5080782;28;20047;-85
2021/08/05 07:43:22;;;;;;;9.63;7.15;;;18.10;99.90;;;;;;5065825;28;20437;-85
2021/08/05 07:45:53;;;;;;;9.60;6.85;;;18.20;99.90;;;;;;5084958;28;20036;-85
2021/08/05 07:48:26;;;;;;;12.48;6.95;;;18.20;99.90;;;;;;5076946;28;20044;-85
2021/08/05 07:50:52;;;;;;;11.07;6.90;;;18.30;99.90;;;;;;5107380;28;20111;-85
2021/08/05 07:53:32;;;;;;;12.40;7.63;;;18.30;99.90;;;;;;5076349;28;20043;-85
2021/08/05 07:59:34;;;;;;;12.40;7.63;;;18.40;99.90;;;;;;5065483;28;20127;-84
2021/08/05 08:02:08;;;;;;;14.48;6.95;;;18.50;99.90;;;;;;5079913;28;20036;-85
2021/08/05 08:04:34;;;;;;;10.05;7.43;;;18.50;99.90;;;;;;5065739;28;20508;-85
2021/08/05 08:07:20;;;;;;;8.52;6.57;;;18.60;99.90;;;;;;5095257;28;20556;-84
2021/08/05 08:10:04;;;;;;;10.00;7.22;;;18.60;99.90;;;;;;5067980;28;20036;-85
2021/08/05 08:12:54;;;;;;;;;;;;;;;;;;;;;
2021/08/05 08:15:49;;;;;;;11.35;7.40;;;18.70;99.90;;;;;;5096435;28;20067;-85
2021/08/05 08:18:22;;;;;;;11.52;7.10;;;18.70;99.90;;;;;;5097112;28;20038;-85
2021/08/05 08:20:59;;;;;;;8.65;6.22;;;18.80;99.90;;;;;;5076426;28;20066;-84
2021/08/05 08:23:28;;;;;;;6.57;4.82;;;18.80;99.90;;;;;;5066875;28;20476;-85
2021/08/05 08:25:59;;;;;;;6.35;4.85;;;18.90;99.90;;;;;;5093564;28;20047;-85
2021/08/05 08:28:30;;;;;;;6.85;4.57;;;18.90;99.90;;;;;;5060451;28;20123;-85
2021/08/05 08:31:04;;;;;;;6.75;4.55;;;18.90;99.90;;;;;;5076737;28;20601;-85
2021/08/05 08:33:45;;;;;;;5.75;4.25;;;18.90;99.90;;;;;;5076649;28;20433;-85
2021/08/05 08:36:19;;;;;;;9.15;4.50;;;19.00;99.90;;;;;;5063619;28;20036;-85
2021/08/05 08:38:49;;;;;;;5.38;3.22;;;19.10;99.90;;;;;;5076359;28;20036;-85
2021/08/05 08:41:24;;;;;;;6.43;3.20;;;19.10;99.90;;;;;;5093810;28;20110;-84
2021/08/05 08:44:04;;;;;;;5.80;2.78;;;19.20;99.90;;;;;;5096182;28;20392;-85
2021/08/05 08:46:36;;;;;;;6.55;3.97;;;19.30;99.90;;;;;;5062106;28;20426;-85
2021/08/05 08:49:12;;;;;;;6.85;4.07;;;19.30;99.90;;;;;;5092831;28;20090;-85
2021/08/05 08:51:57;;;;;;;5.18;4.18;;;19.30;99.90;;;;;;5092513;28;20044;-84
2021/08/05 08:54:43;;;;;;;;;;;;;;;;;;;;;
2021/08/05 08:57:20;;;;;;;7.03;5.38;;;19.40;99.90;;;;;;5094462;28;20055;-85
2021/08/05 08:59:52;;;;;;;8.77;4.93;;;19.40;99.90;;;;;;5064786;28;20040;-87
2021/08/05 09:02:30;;;;;;;5.45;4.50;;;19.50;99.90;;;;;;5075462;28;20532;-87
2021/08/05 09:05:06;;;;;;;9.18;4.82;;;19.50;99.90;;;;;;5095665;28;20464;-87
2021/08/05 09:07:37;;;;;;;5.78;4.93;;;19.70;99.90;;;;;;5078995;28;20486;-87
2021/08/05 09:10:35;;;;;;;9.02;5.72;;;19.70;99.90;;;;;;5082687;28;20065;-87
2021/08/05 09:13:07;;;;;;;8.93;5.45;;;19.80;99.90;;;;;;5095405;28;20372;-87
2021/08/05 09:15:48;;;;;;;5.95;4.85;;;19.80;99.90;;;;;;5093180;28;20114;-87
2021/08/05 09:18:38;;;;;;;8.82;5.75;;;19.80;99.90;;;;;;5070673;28;20399;-87
2021/08/05 09:21:23;;;;;;;9.32;6.22;;;19.90;99.90;;;;;;5113489;28;20460;-87
2021/08/05 09:24:09;;;;;;;10.00;6.82;;;20.00;99.90;;;;;;5078502;28;20043;-87
2021/08/05 09:26:50;;;;;;;8.68;5.63;;;20.00;99.90;;;;;;5079187;28;20043;-87
2021/08/05 09:29:30;;;;;;;7.40;4.47;;;20.00;99.90;;;;;;5078327;28;20475;-87
2021/08/05 09:32:04;;;;;;;6.97;4.68;;;20.10;99.90;;;;;;5077851;28;20047;-87
2021/08/05 09:34:47;;;;;;;6.63;5.30;;;20.20;99.90;;;;;;5060838;28;20043;-87
2021/08/05 09:37:19;;;;;;;10.32;6.70;;;20.20;99.90;;;;;;5087167;28;20046;-87
2021/08/05 09:39:55;;;;;;;7.68;5.97;;;20.40;99.90;;;;;;5058992;28;20040;-87
2021/08/05 09:42:40;;;;;;;6.60;4.28;;;20.20;99.90;;;;;;5088967;28;20048;-88
2021/08/05 09:45:19;;;;;;;6.00;4.15;;;20.30;99.90;;;;;;5082686;28;20456;-87
2021/08/05 09:47:54;;;;;;;5.90;4.20;;;20.40;99.90;;;;;;5058817;28;20403;-87
2021/08/05 09:50:24;;;;;;;8.38;4.30;;;20.20;99.90;;;;;;5066233;28;20058;-87
2021/08/05 09:53:12;;;;;;;5.47;4.28;;;20.30;99.90;;;;;;5077861;28;20047;-87
2021/08/05 09:55:42;;;;;;;7.68;4.13;;;20.40;99.90;;;;;;5103399;28;20111;-87
2021/08/05 09:58:11;;;;;;;7.50;4.68;;;20.20;99.90;;;;;;5074686;28;20044;-87
2021/08/05 10:00:53;;;;;;;7.55;5.00;;;20.50;99.90;;;;;;5058206;28;20040;-87
2021/08/05 10:03:33;;;;;;;10.63;5.40;;;20.40;99.90;;;;;;5047384;28;20051;-87
2021/08/05 10:06:12;;;;;;;7.55;4.20;;;20.50;99.90;;;;;;5083519;28;20048;-87
2021/08/05 10:09:09;;;;;;;7.80;4.28;;;20.50;99.90;;;;;;5093463;28;20476;-87
2021/08/05 10:12:20;;;;;;;10.23;4.57;;;20.50;99.90;;;;;;5096392;28;20539;-87
2021/08/05 10:18:16;;;;;;;6.05;3.72;;;20.60;99.90;;;;;;5085587;28;20074;-87
2021/08/05 10:21:23;;;;;;;;;;;;;;;;;;;;;
2021/08/05 10:24:03;;;;;;;5.50;2.80;;;20.70;99.90;;;;;;5101516;28;20119;-87
2021/08/05 10:26:35;;;;;;;5.18;3.15;;;20.70;99.90;;;;;;5077968;28;20085;-87
2021/08/05 10:29:09;;;;;;;6.60;4.10;;;20.80;99.90;;;;;;5077435;28;20130;-87
2021/08/05 10:31:40;;;;;;;4.22;3.20;;;20.80;99.90;;;;;;5094406;28;20047;-87
2021/08/05 10:34:23;;;;;;;2.90;2.40;;;20.80;99.90;;;;;;5094308;28;20038;-87
2021/08/05 10:36:50;;;;;;;4.32;2.88;;;20.90;99.90;;;;;;5066656;28;20069;-88
2021/08/05 10:39:22;;;;;;;3.08;2.20;;;20.90;99.90;;;;;;5094455;28;20032;-88
2021/08/05 10:42:05;;;;;;;3.90;2.20;;;21.00;99.90;;;;;;5075032;28;20044;-88
2021/08/05 10:44:38;;;;;;;3.33;2.30;;;21.10;99.90;;;;;;5074493;28;20073;-88
2021/08/05 10:47:47;;;;;;;4.32;2.10;;;21.20;99.90;;;;;;5077933;28;20066;-87
2021/08/05 10:50:50;;;;;;;2.88;2.40;;;21.20;99.90;;;;;;5099800;28;20081;-88
2021/08/05 10:53:43;;;;;;;4.78;2.50;;;21.20;99.90;;;;;;5084982;28;20434;-87
2021/08/05 10:56:44;;;;;;;5.65;3.10;;;21.20;99.90;;;;;;5092772;28;20044;-87
2021/08/05 10:59:16;;;;;;;5.38;3.38;;;21.30;99.90;;;;;;5078143;28;20046;-87
2021/08/05 11:05:48;;;;;;;7.65;4.05;;;21.30;99.90;;;;;;5029206;28;20043;-88
2021/08/05 11:08:18;;;;;;;4.85;3.05;;;21.40;99.90;;;;;;5116067;28;20036;-87
2021/08/05 11:11:24;;;;;;;5.30;3.25;;;21.50;99.90;;;;;;5107022;28;20042;-87
2021/08/05 11:14:10;;;;;;;3.90;2.35;;;21.50;99.90;;;;;;5087443;28;20104;-88
2021/08/05 11:17:00;;;;;;;;;;;;;;;;;;;;;
2021/08/05 11:19:42;;;;;;;3.10;2.40;;;21.60;99.90;;;;;;5115959;28;20483;-88
2021/08/05 11:22:34;;;;;;;4.75;2.88;;;21.60;99.90;;;;;;5066981;28;20540;-87
2021/08/05 11:25:23;;;;;;;5.50;2.78;;;21.80;99.90;;;;;;5038752;28;20051;-88
2021/08/05 11:28:38;;;;;;;;;;;;;;;;;;;;;
2021/08/05 11:31:11;;;;;;;5.80;2.80;;;21.90;99.90;;;;;;5113411;28;20040;-87
2021/08/05 11:33:54;;;;;;;5.55;3.30;;;21.90;99.90;;;;;;5081551;28;20049;-88
2021/08/05 11:40:20;;;;;;;5.22;2.72;;;21.80;99.90;;;;;;5079255;28;20054;-87
2021/08/05 11:47:28;;;;;;;3.75;2.03;;;21.80;99.90;;;;;;5049792;28;20585;-88
2021/08/05 11:50:15;;;;;;;4.30;2.17;;;22.00;99.90;;;;;;5096220;28;20032;-88
2021/08/05 11:52:56;;;;;;;4.47;2.20;;;21.80;99.90;;;;;;5097577;28;20046;-88
2021/08/05 11:55:28;;;;;;;3.30;2.30;;;21.90;99.90;;;;;;5076818;28;20064;-88
2021/08/05 11:58:07;;;;;;;3.38;2.10;;;21.90;99.90;;;;;;5061310;28;20130;-88
2021/08/05 12:01:06;;;;;;;4.80;2.03;;;22.00;99.90;;;;;;5061594;28;20040;-88
2021/08/05 12:03:34;;;;;;;4.38;2.30;;;22.10;99.90;;;;;;5075299;28;20059;-87
2021/08/05 12:06:05;;;;;;;4.35;3.00;;;22.10;99.90;;;;;;5106111;28;20539;-88
2021/08/05 12:08:39;;;;;;;4.85;2.20;;;21.90;99.90;;;;;;5064295;28;20047;-88
2021/08/05 12:11:43;;;;;;;4.90;2.70;;;22.00;99.90;;;;;;5096858;28;20527;-88
2021/08/05 12:14:14;;;;;;;5.03;2.38;;;22.00;99.90;;;;;;5084810;28;20035;-87
2021/08/05 12:16:43;;;;;;;5.15;2.33;;;22.00;99.90;;;;;;5080271;28;20039;-88
2021/08/05 12:19:20;;;;;;;2.97;2.28;;;22.00;99.90;;;;;;5079947;28;20043;-88
2021/08/05 12:21:51;;;;;;;3.72;2.10;;;22.00;99.90;;;;;;5079979;28;20048;-88
2021/08/05 12:24:23;;;;;;;3.75;2.40;;;22.00;99.90;;;;;;5059270;28;20048;-88
2021/08/05 12:26:58;;;;;;;3.53;2.40;;;22.00;99.90;;;;;;5070066;28;20055;-88
2021/08/05 12:29:25;;;;;;;5.35;2.03;;;22.00;99.90;;;;;;5096563;28;20040;-88
2021/08/05 12:32:07;;;;;;;3.38;2.00;;;21.90;99.90;;;;;;5097272;28;20047;-88
2021/08/05 12:34:48;;;;;;;5.75;2.03;;;21.90;99.90;;;;;;5059991;28;20118;-88
2021/08/05 12:37:20;;;;;;;5.50;2.20;;;22.00;99.90;;;;;;5069152;28;20036;-88
2021/08/05 12:39:53;;;;;;;3.13;1.92;;;21.90;99.90;;;;;;5099943;28;20035;-88
2021/08/05 12:42:28;;;;;;;2.97;2.30;;;21.90;99.90;;;;;;5066986;28;20055;-88
2021/08/05 12:45:05;;;;;;;2.65;2.05;;;21.90;99.90;;;;;;5092446;28;20048;-88
2021/08/05 12:47:40;;;;;;;3.17;2.30;;;21.80;99.90;;;;;;5092982;28;20135;-88
2021/08/05 12:50:12;;;;;;;3.40;2.03;;;21.80;99.90;;;;;;5076764;28;20043;-87
2021/08/05 12:52:42;;;;;;;3.42;2.38;;;21.80;99.90;;;;;;5103123;28;20054;-88
2021/08/05 12:55:17;;;;;;;4.05;1.90;;;21.80;99.90;;;;;;5097909;28;20111;-87
2021/08/05 12:58:01;;;;;;;3.72;2.50;;;21.80;99.90;;;;;;5060964;28;20040;-87
2021/08/05 13:00:39;;;;;;;3.50;2.20;;;21.90;99.90;;;;;;5060169;28;20060;-88
2021/08/05 13:03:17;;;;;;;3.05;2.40;;;22.00;99.90;;;;;;5059969;28;20054;-88
2021/08/05 13:12:30;;;;;;;4.38;2.22;;;22.20;99.90;;;;;;5099110;28;20036;-87
2021/08/05 13:15:37;;;;;;;6.82;2.70;;;21.80;99.90;;;;;;5095356;28;20036;-87
2021/08/05 13:18:22;;;;;;;3.47;2.25;;;22.10;99.90;;;;;;5078355;28;20069;-88
2021/08/05 13:21:15;;;;;;;4.10;2.28;;;22.20;99.90;;;;;;5078710;28;20041;-88
2021/08/05 13:24:39;;;;;;;3.42;2.15;;;22.20;99.90;;;;;;5078757;28;20161;-88
2021/08/05 13:27:34;;;;;;;5.53;2.20;;;22.40;99.90;;;;;;5013988;28;20068;-88
2021/08/05 13:30:16;;;;;;;4.28;2.17;;;22.20;99.90;;;;;;5085746;28;20527;-88
2021/08/05 13:32:46;;;;;;;2.80;2.40;;;22.30;99.90;;;;;;5063941;28;20395;-88
2021/08/05 13:35:26;;;;;;;5.35;2.42;;;22.40;99.90;;;;;;5079043;28;20043;-88
2021/08/05 13:38:38;;;;;;;3.38;2.30;;;22.30;99.90;;;;;;5081106;28;20421;-88
2021/08/05 13:41:27;;;;;;;3.60;2.50;;;22.30;99.90;;;;;;5080871;28;20039;-88
2021/08/05 13:43:57;;;;;;;3.75;2.10;;;22.30;99.90;;;;;;5061545;28;20054;-88
2021/08/05 13:46:41;;;;;;;4.00;2.40;;;22.30;99.90;;;;;;5047678;28;20118;-89
2021/08/05 13:49:12;;;;;;;6.25;2.30;;;22.40;99.90;;;;;;5059727;28;20051;-88
2021/08/05 13:51:46;;;;;;;4.00;1.90;;;22.50;99.90;;;;;;5060718;28;20043;-88
2021/08/05 13:54:21;;;;;;;3.28;1.92;;;22.60;99.90;;;;;;5105360;28;20031;-88